Time;durP1;ratioP1;P1;durP2;ratioP2;P2;SDS_P1;SDS_P2;PMS_P1;PMS_P2;Temp;Humidity;BMP_temperature;BMP_pressure;BME280_temperature;BME280_humidity;BME280_pressure;Samples;Min_cycle;Max_cycle;Signal;HPM_P1;HPM_P2
2022/04/30 00:02:09;;;;;;;10.97;6.33;;;6.90;99.90;;;;;;5060821;28;20205;-82
2022/04/30 00:04:42;;;;;;;10.87;5.40;;;6.90;99.90;;;;;;5046770;28;20312;-86
2022/04/30 00:07:13;;;;;;;12.10;5.57;;;6.90;99.90;;;;;;5065097;28;20213;-82
2022/04/30 00:09:40;;;;;;;12.77;6.23;;;6.80;99.90;;;;;;5040208;28;20720;-81
2022/04/30 00:12:07;;;;;;;11.20;6.57;;;6.80;99.90;;;;;;5068640;28;20621;-82
2022/04/30 00:14:33;;;;;;;13.00;6.07;;;6.80;99.90;;;;;;5066692;28;20218;-82
2022/04/30 00:17:00;;;;;;;19.07;7.53;;;6.80;99.90;;;;;;5049558;28;20283;-82
2022/04/30 00:19:28;;;;;;;14.03;6.60;;;6.80;99.90;;;;;;5065907;28;20205;-84
2022/04/30 00:21:56;;;;;;;15.07;6.83;;;6.80;99.90;;;;;;5064817;28;20401;-81
2022/04/30 00:24:24;;;;;;;14.00;6.97;;;6.80;99.90;;;;;;5061093;28;20260;-82
2022/04/30 00:26:51;;;;;;;14.73;7.17;;;6.80;99.90;;;;;;5063634;28;20643;-79
2022/04/30 00:29:18;;;;;;;14.70;7.27;;;6.80;99.90;;;;;;5067602;28;20293;-82
2022/04/30 00:31:45;;;;;;;12.17;6.73;;;6.70;99.90;;;;;;5067216;28;20669;-82
2022/04/30 00:34:12;;;;;;;18.07;7.17;;;6.50;99.90;;;;;;5067405;28;20217;-80
2022/04/30 00:36:39;;;;;;;18.50;7.57;;;6.70;99.90;;;;;;5066861;28;20233;-81
2022/04/30 00:39:06;;;;;;;11.73;6.70;;;6.70;99.90;;;;;;5057554;28;20711;-82
2022/04/30 00:41:33;;;;;;;15.97;7.83;;;6.90;99.90;;;;;;5062033;28;20280;-83
2022/04/30 00:44:00;;;;;;;15.40;6.97;;;6.70;99.90;;;;;;5062068;28;20263;-81
2022/04/30 00:46:28;;;;;;;15.30;7.50;;;6.70;99.90;;;;;;5066389;28;20201;-83
2022/04/30 00:48:57;;;;;;;19.47;7.50;;;6.90;99.90;;;;;;5064545;28;20209;-81
2022/04/30 00:51:26;;;;;;;16.23;7.93;;;6.70;99.90;;;;;;5060896;28;20558;-81
2022/04/30 00:53:54;;;;;;;14.97;7.30;;;6.60;99.90;;;;;;5049426;28;20233;-82
2022/04/30 00:56:38;;;;;;;14.60;7.60;;;6.60;99.90;;;;;;5066174;28;20239;-83
2022/04/30 00:59:06;;;;;;;16.27;7.83;;;6.50;99.90;;;;;;5065231;28;20703;-82
2022/04/30 01:01:35;;;;;;;16.83;7.60;;;6.60;99.90;;;;;;5067714;28;20211;-81
2022/04/30 01:04:02;;;;;;;18.17;8.07;;;6.50;99.90;;;;;;5049360;28;20217;-81
2022/04/30 01:06:51;;;;;;;17.50;8.10;;;6.60;99.90;;;;;;5066854;28;20233;-83
2022/04/30 01:09:25;;;;;;;15.57;7.17;;;6.50;99.90;;;;;;5061783;28;20229;-84
2022/04/30 01:11:56;;;;;;;19.83;7.70;;;6.50;99.90;;;;;;5060741;28;20252;-83
2022/04/30 01:14:26;;;;;;;17.23;8.03;;;6.50;99.90;;;;;;5049190;28;20231;-85
2022/04/30 01:16:57;;;;;;;14.87;8.27;;;6.40;99.90;;;;;;5076753;28;20302;-84
2022/04/30 01:19:27;;;;;;;17.80;8.70;;;6.40;99.90;;;;;;5081072;28;20233;-83
2022/04/30 01:21:58;;;;;;;13.93;7.53;;;6.40;99.90;;;;;;5067055;28;20212;-81
2022/04/30 01:24:26;;;;;;;18.77;8.47;;;6.40;99.90;;;;;;5062244;28;20819;-83
2022/04/30 01:26:55;;;;;;;17.70;8.90;;;6.40;99.90;;;;;;5063190;28;20710;-83
2022/04/30 01:29:24;;;;;;;15.27;8.67;;;6.40;99.90;;;;;;5060814;28;20349;-82
2022/04/30 01:37:27;;;;;;;22.90;8.77;;;6.30;99.90;;;;;;5060637;28;20700;-82
2022/04/30 01:40:13;;;;;;;23.77;8.57;;;6.20;99.90;;;;;;5070581;28;20274;-80
2022/04/30 01:42:45;;;;;;;19.93;9.50;;;6.20;99.90;;;;;;5061660;28;20280;-82
2022/04/30 01:45:12;;;;;;;17.77;8.30;;;6.20;99.90;;;;;;5063536;28;20251;-81
2022/04/30 01:47:41;;;;;;;16.60;9.07;;;6.10;99.90;;;;;;5067564;28;20687;-82
2022/04/30 01:50:08;;;;;;;21.93;9.17;;;5.90;99.90;;;;;;5063564;28;20663;-82
2022/04/30 01:52:35;;;;;;;20.77;9.20;;;6.10;99.90;;;;;;5067548;28;20213;-82
2022/04/30 01:55:03;;;;;;;21.07;8.97;;;6.00;99.90;;;;;;5075017;28;20234;-81
2022/04/30 01:57:30;;;;;;;19.67;9.13;;;6.00;99.90;;;;;;5088438;28;20298;-82
2022/04/30 01:59:59;;;;;;;20.67;9.00;;;5.90;99.90;;;;;;5081953;28;20672;-81
2022/04/30 02:02:36;;;;;;;18.73;8.57;;;5.90;99.90;;;;;;5082962;28;20210;-83
2022/04/30 02:05:07;;;;;;;19.80;9.50;;;5.90;99.90;;;;;;5080755;28;20747;-84
2022/04/30 02:07:41;;;;;;;18.13;9.10;;;5.90;99.90;;;;;;5053365;28;20211;-81
2022/04/30 02:10:10;;;;;;;18.47;9.00;;;6.00;99.90;;;;;;5064473;28;20212;-83
2022/04/30 02:12:38;;;;;;;19.87;8.67;;;5.90;99.90;;;;;;5050719;28;20558;-83
2022/04/30 02:15:08;;;;;;;20.43;9.20;;;5.50;99.90;;;;;;5072494;28;20626;-83
2022/04/30 02:17:38;;;;;;;19.87;8.93;;;5.80;99.90;;;;;;5071684;28;20705;-83
2022/04/30 02:20:19;;;;;;;17.00;9.03;;;5.80;99.90;;;;;;5069578;28;20233;-83
2022/04/30 02:22:47;;;;;;;19.30;8.33;;;5.80;99.90;;;;;;5068099;28;20211;-83
2022/04/30 02:25:15;;;;;;;22.93;9.60;;;5.80;99.90;;;;;;5069270;28;20293;-81
2022/04/30 02:27:44;;;;;;;23.53;9.43;;;5.80;99.90;;;;;;5069268;28;20207;-83
2022/04/30 02:30:17;;;;;;;19.77;9.43;;;5.80;99.90;;;;;;5072698;28;20205;-81
2022/04/30 02:32:54;;;;;;;21.33;8.90;;;5.80;99.90;;;;;;5064686;28;20573;-81
2022/04/30 02:35:26;;;;;;;17.80;9.57;;;5.70;99.90;;;;;;5062540;28;20292;-81
2022/04/30 02:37:54;;;;;;;22.23;9.37;;;5.70;99.90;;;;;;5070059;28;20295;-82
2022/04/30 02:40:24;;;;;;;22.63;9.73;;;5.70;99.90;;;;;;5070030;28;20327;-82
2022/04/30 02:42:52;;;;;;;21.73;9.17;;;5.60;99.90;;;;;;5068351;28;20234;-82
2022/04/30 02:45:21;;;;;;;23.13;9.23;;;5.60;99.90;;;;;;5060793;28;20234;-84
2022/04/30 02:47:55;;;;;;;22.30;9.73;;;5.60;99.90;;;;;;5069125;28;20212;-81
2022/04/30 02:50:23;;;;;;;24.33;9.83;;;5.50;99.90;;;;;;5064122;28;20202;-82
2022/04/30 02:52:52;;;;;;;25.77;11.03;;;5.60;99.90;;;;;;5064036;28;20283;-82
2022/04/30 02:55:19;;;;;;;19.27;9.70;;;5.50;99.90;;;;;;5061018;28;20325;-82
2022/04/30 03:00:39;;;;;;;19.47;10.73;;;5.50;99.90;;;;;;5069576;28;20233;-83
2022/04/30 03:03:06;;;;;;;19.90;9.90;;;5.50;99.90;;;;;;5064172;28;20228;-82
2022/04/30 03:05:35;;;;;;;20.90;9.60;;;5.50;99.90;;;;;;5066303;28;20218;-82
2022/04/30 03:08:12;;;;;;;23.10;9.80;;;5.40;99.90;;;;;;5065478;28;20828;-81
2022/04/30 03:10:40;;;;;;;22.50;9.93;;;5.40;99.90;;;;;;5065477;28;20303;-82
2022/04/30 03:13:07;;;;;;;18.57;10.07;;;5.40;99.90;;;;;;5066211;28;20208;-83
2022/04/30 03:15:35;;;;;;;25.60;10.87;;;5.50;99.90;;;;;;5059633;28;20248;-84
2022/04/30 03:23:38;;;;;;;22.00;10.07;;;5.40;99.90;;;;;;5065043;28;20218;-82
2022/04/30 03:26:06;;;;;;;21.53;10.63;;;5.30;99.90;;;;;;5067923;28;20699;-83
2022/04/30 03:28:33;;;;;;;22.07;10.40;;;5.40;99.90;;;;;;5065660;28;20673;-84
2022/04/30 03:31:00;;;;;;;25.63;10.73;;;5.30;99.90;;;;;;5062938;28;20298;-82
2022/04/30 03:33:27;;;;;;;24.77;11.27;;;5.40;99.90;;;;;;5046818;28;20248;-82
2022/04/30 03:35:54;;;;;;;24.10;11.57;;;5.30;99.90;;;;;;5064774;28;20295;-83
2022/04/30 03:38:21;;;;;;;24.70;10.77;;;5.30;99.90;;;;;;5076771;28;20233;-82
2022/04/30 03:40:48;;;;;;;27.13;11.30;;;5.30;99.90;;;;;;5074950;28;20239;-82
2022/04/30 03:43:16;;;;;;;21.43;10.50;;;5.20;99.90;;;;;;5068007;28;20338;-83
2022/04/30 03:45:46;;;;;;;26.03;11.17;;;5.30;99.90;;;;;;5051216;28;20245;-83
2022/04/30 03:48:14;;;;;;;21.63;10.80;;;5.30;99.90;;;;;;5066469;28;20295;-85
2022/04/30 03:50:42;;;;;;;21.23;11.47;;;5.20;99.90;;;;;;5064727;28;20689;-83
2022/04/30 03:53:09;;;;;;;21.53;10.83;;;5.20;99.90;;;;;;5065951;28;20308;-83
2022/04/30 03:55:36;;;;;;;21.70;10.00;;;5.20;99.90;;;;;;5058729;28;20209;-83
2022/04/30 03:58:03;;;;;;;24.77;10.63;;;5.20;99.90;;;;;;5061479;28;20213;-84
2022/04/30 04:00:29;;;;;;;25.17;10.80;;;5.20;99.90;;;;;;5064670;28;20239;-82
2022/04/30 04:02:59;;;;;;;24.50;10.83;;;5.20;99.90;;;;;;5068584;28;20220;-84
2022/04/30 04:05:26;;;;;;;27.43;12.20;;;5.20;99.90;;;;;;5066559;28;20213;-82
2022/04/30 04:07:54;;;;;;;29.07;11.33;;;5.10;99.90;;;;;;5050336;28;20205;-83
2022/04/30 04:10:21;;;;;;;21.17;11.27;;;5.10;99.90;;;;;;5064461;28;20240;-84
2022/04/30 04:12:48;;;;;;;22.70;10.07;;;5.10;99.90;;;;;;5045595;28;20260;-85
2022/04/30 04:18:00;;;;;;;24.53;10.93;;;5.10;99.90;;;;;;5063839;28;20227;-83
2022/04/30 04:20:27;;;;;;;25.63;11.37;;;5.10;99.90;;;;;;5057575;28;20560;-82
2022/04/30 04:22:55;;;;;;;21.77;10.73;;;5.10;99.90;;;;;;5064796;28;20201;-83
2022/04/30 04:28:08;;;;;;;20.47;11.00;;;5.10;99.90;;;;;;5061107;28;20653;-86
2022/04/30 04:30:35;;;;;;;24.50;11.17;;;5.10;99.90;;;;;;5067387;28;20680;-82
2022/04/30 04:33:02;;;;;;;21.73;11.07;;;5.10;99.90;;;;;;5067078;28;20205;-83
2022/04/30 04:35:29;;;;;;;22.60;11.53;;;5.20;99.90;;;;;;5065656;28;20580;-83
2022/04/30 04:37:56;;;;;;;26.20;11.73;;;5.20;99.90;;;;;;5070897;28;20213;-83
2022/04/30 04:40:23;;;;;;;23.07;10.97;;;5.30;99.90;;;;;;5046191;28;20710;-82
2022/04/30 04:42:50;;;;;;;25.97;11.83;;;5.40;99.90;;;;;;5069248;28;20742;-85
2022/04/30 04:45:17;;;;;;;26.97;11.80;;;5.40;99.90;;;;;;5068149;28;20205;-82
2022/04/30 04:47:49;;;;;;;25.03;11.60;;;5.50;99.90;;;;;;5047818;28;20633;-83
2022/04/30 04:50:17;;;;;;;24.30;12.07;;;5.50;99.90;;;;;;5052028;28;20242;-84
2022/04/30 04:52:44;;;;;;;23.77;11.23;;;5.50;99.90;;;;;;5062797;28;20245;-85
2022/04/30 04:55:11;;;;;;;26.63;11.30;;;5.60;99.90;;;;;;5061110;28;20237;-83
2022/04/30 04:57:37;;;;;;;20.67;10.87;;;5.70;99.90;;;;;;5062537;28;20246;-84
2022/04/30 05:00:06;;;;;;;19.00;10.07;;;5.70;99.90;;;;;;5059899;28;20252;-83
2022/04/30 05:02:33;;;;;;;21.93;10.23;;;5.80;99.90;;;;;;5064496;28;20209;-83
2022/04/30 05:05:00;;;;;;;21.97;10.03;;;5.90;99.90;;;;;;5068071;28;20748;-83
2022/04/30 05:07:27;;;;;;;21.67;10.63;;;6.00;99.90;;;;;;5066332;28;20262;-84
2022/04/30 05:09:54;;;;;;;20.37;11.03;;;6.20;99.90;;;;;;5062425;28;20217;-83
2022/04/30 05:12:21;;;;;;;20.07;10.30;;;6.30;99.90;;;;;;5063821;28;20297;-84
2022/04/30 05:14:48;;;;;;;25.17;11.13;;;6.20;99.90;;;;;;5065608;28;20208;-83
2022/04/30 05:17:15;;;;;;;23.77;11.03;;;6.40;99.90;;;;;;5061783;28;20266;-83
2022/04/30 05:19:42;;;;;;;24.43;10.93;;;6.40;99.90;;;;;;5061271;28;20234;-84
2022/04/30 05:22:09;;;;;;;14.07;8.70;;;6.60;99.90;;;;;;5062757;28;20251;-83
2022/04/30 05:24:36;;;;;;;23.80;9.97;;;6.60;99.90;;;;;;5060752;28;20206;-83
2022/04/30 05:27:03;;;;;;;18.87;9.77;;;6.70;99.90;;;;;;5067582;28;20218;-80
2022/04/30 05:29:31;;;;;;;17.27;8.93;;;6.80;99.90;;;;;;5067253;28;20244;-83
2022/04/30 05:31:57;;;;;;;18.53;9.57;;;6.90;99.90;;;;;;5065511;28;20306;-84
2022/04/30 05:34:24;;;;;;;15.67;9.27;;;7.00;99.90;;;;;;5068209;28;20253;-84
2022/04/30 05:36:51;;;;;;;17.17;9.53;;;7.00;99.90;;;;;;5060638;28;20734;-84
2022/04/30 05:39:18;;;;;;;15.73;8.53;;;7.10;99.90;;;;;;5060474;28;20275;-83
2022/04/30 05:41:46;;;;;;;19.83;9.10;;;7.20;99.90;;;;;;5058314;28;20293;-83
2022/04/30 05:44:13;;;;;;;15.13;8.47;;;7.40;99.90;;;;;;5067529;28;20240;-84
2022/04/30 05:46:40;;;;;;;17.17;9.17;;;7.60;99.90;;;;;;5049271;28;20249;-85
2022/04/30 05:49:07;;;;;;;12.83;7.73;;;7.70;99.90;;;;;;5065459;28;20213;-83
2022/04/30 05:51:34;;;;;;;15.80;8.67;;;8.10;99.90;;;;;;5066444;28;20305;-82
2022/04/30 05:54:01;;;;;;;14.07;7.93;;;7.90;99.90;;;;;;5063213;28;20353;-84
2022/04/30 05:56:28;;;;;;;13.20;8.87;;;8.10;99.90;;;;;;5061626;28;21000;-84
2022/04/30 05:58:54;;;;;;;17.30;8.53;;;8.20;99.90;;;;;;5066851;28;20238;-83
2022/04/30 06:01:21;;;;;;;13.73;7.83;;;8.30;99.90;;;;;;5047524;28;20259;-83
2022/04/30 06:03:48;;;;;;;16.30;7.80;;;8.50;99.90;;;;;;5056692;28;20383;-84
2022/04/30 06:06:15;;;;;;;12.90;8.07;;;8.90;99.90;;;;;;5068734;28;20208;-85
2022/04/30 06:08:42;;;;;;;15.47;8.40;;;9.40;99.90;;;;;;5054446;28;20424;-84
2022/04/30 06:11:09;;;;;;;10.33;7.10;;;10.20;99.90;;;;;;5067255;28;20515;-85
2022/04/30 06:13:39;;;;;;;11.30;7.13;;;11.20;99.90;;;;;;5063120;28;20331;-85
2022/04/30 06:16:06;;;;;;;10.50;6.30;;;12.60;99.90;;;;;;5057950;28;20212;-84
2022/04/30 06:18:33;;;;;;;12.23;6.70;;;13.80;99.90;;;;;;5059318;28;20577;-84
2022/04/30 06:21:05;;;;;;;10.23;5.67;;;14.80;99.90;;;;;;5050364;28;20216;-85
2022/04/30 06:23:33;;;;;;;7.57;6.00;;;15.70;99.90;;;;;;5054248;28;20217;-82
2022/04/30 06:25:59;;;;;;;9.05;4.78;;;17.10;99.90;;;;;;5064011;28;20678;-83
2022/04/30 06:28:26;;;;;;;8.93;5.50;;;17.10;99.90;;;;;;5068460;28;20236;-83
2022/04/30 06:30:54;;;;;;;9.60;4.97;;;17.40;99.90;;;;;;5069186;28;20208;-85
2022/04/30 06:33:22;;;;;;;7.85;4.88;;;17.30;99.90;;;;;;5064923;28;20209;-83
2022/04/30 06:35:50;;;;;;;6.95;5.38;;;18.70;99.90;;;;;;5067607;28;20603;-86
2022/04/30 06:38:18;;;;;;;8.05;5.00;;;18.30;99.90;;;;;;5062693;28;20681;-86
2022/04/30 06:40:46;;;;;;;8.32;4.68;;;18.40;99.90;;;;;;5061569;28;20700;-85
2022/04/30 06:43:14;;;;;;;8.52;4.63;;;18.40;99.90;;;;;;5068049;28;20235;-85
2022/04/30 06:45:40;;;;;;;7.55;4.60;;;19.10;99.90;;;;;;5067453;28;20212;-83
2022/04/30 06:48:12;;;;;;;9.85;5.07;;;19.50;99.90;;;;;;5067421;28;20285;-85
2022/04/30 06:50:39;;;;;;;8.27;4.72;;;20.10;99.90;;;;;;5069736;28;20208;-86
2022/04/30 06:58:50;;;;;;;6.35;4.43;;;20.00;99.90;;;;;;5065474;28;20209;-85
2022/04/30 07:04:07;;;;;;;8.93;4.05;;;19.30;99.90;;;;;;5065328;28;20300;-85
2022/04/30 07:06:37;;;;;;;5.40;3.97;;;19.10;99.90;;;;;;5046982;28;20247;-85
2022/04/30 07:09:06;;;;;;;9.20;4.47;;;18.60;99.90;;;;;;5045110;28;20208;-86
2022/04/30 07:11:33;;;;;;;9.05;4.22;;;18.20;99.90;;;;;;5070850;28;20251;-83
2022/04/30 07:14:00;;;;;;;6.85;4.47;;;17.70;99.90;;;;;;5069678;28;20231;-84
2022/04/30 07:16:27;;;;;;;7.40;4.95;;;17.40;99.90;;;;;;5069592;28;20642;-83
2022/04/30 07:18:54;;;;;;;8.60;4.80;;;17.00;99.90;;;;;;5068212;28;20570;-83
2022/04/30 07:21:20;;;;;;;7.63;4.45;;;16.70;99.90;;;;;;5064944;28;20912;-83
2022/04/30 07:23:48;;;;;;;7.13;4.50;;;16.20;99.90;;;;;;5064435;28;20205;-83
2022/04/30 07:26:16;;;;;;;7.25;4.53;;;16.10;99.90;;;;;;5047896;28;20201;-84
2022/04/30 07:28:44;;;;;;;8.27;4.50;;;15.70;99.90;;;;;;5055271;28;20212;-83
2022/04/30 07:31:11;;;;;;;6.60;4.33;;;15.40;99.90;;;;;;5060906;28;20213;-83
2022/04/30 07:33:38;;;;;;;8.43;4.80;;;15.10;99.90;;;;;;5071388;28;20222;-86
2022/04/30 07:36:05;;;;;;;9.03;5.00;;;14.90;99.90;;;;;;5070761;28;20242;-84
2022/04/30 07:38:32;;;;;;;11.37;5.30;;;14.70;99.90;;;;;;5067805;28;20714;-84
2022/04/30 07:40:59;;;;;;;7.30;4.90;;;14.50;99.90;;;;;;5046032;28;20524;-84
2022/04/30 07:43:26;;;;;;;9.00;4.90;;;14.30;99.90;;;;;;5052842;28;20256;-82
2022/04/30 07:45:53;;;;;;;6.77;5.07;;;14.20;99.90;;;;;;5050208;28;20656;-83
2022/04/30 07:48:19;;;;;;;8.53;5.07;;;14.20;99.90;;;;;;5045376;28;20236;-83
2022/04/30 07:50:46;;;;;;;6.57;4.77;;;14.00;99.90;;;;;;5068746;28;20220;-83
2022/04/30 07:53:15;;;;;;;7.40;4.63;;;13.90;99.90;;;;;;5052195;28;20262;-83
2022/04/30 07:55:44;;;;;;;6.53;5.00;;;13.80;99.90;;;;;;5064773;28;20671;-84
2022/04/30 07:58:13;;;;;;;9.40;5.47;;;13.60;99.90;;;;;;5052714;28;20216;-83
2022/04/30 08:00:39;;;;;;;8.10;4.97;;;13.60;99.90;;;;;;5067413;28;20288;-83
2022/04/30 08:03:06;;;;;;;7.90;4.90;;;13.60;99.90;;;;;;5051693;28;20290;-83
2022/04/30 08:05:34;;;;;;;7.73;5.27;;;13.70;99.90;;;;;;5067012;28;20328;-85
2022/04/30 08:08:04;;;;;;;8.40;5.00;;;13.90;99.90;;;;;;5056917;28;20205;-83
2022/04/30 08:10:31;;;;;;;7.70;5.27;;;14.50;99.90;;;;;;5061933;28;20204;-84
2022/04/30 08:12:59;;;;;;;8.90;4.73;;;15.00;99.90;;;;;;5065030;28;20200;-83
2022/04/30 08:15:26;;;;;;;9.90;5.22;;;15.90;99.90;;;;;;5069112;28;20236;-83
2022/04/30 08:17:54;;;;;;;5.93;4.65;;;16.50;99.90;;;;;;5068302;28;20255;-85
2022/04/30 08:20:21;;;;;;;7.72;4.55;;;16.90;99.90;;;;;;5051465;28;20225;-83
2022/04/30 08:22:48;;;;;;;6.75;4.57;;;17.60;99.90;;;;;;5049343;28;20212;-87
2022/04/30 08:25:15;;;;;;;10.43;4.75;;;18.40;99.90;;;;;;5064549;28;20212;-84
2022/04/30 08:27:42;;;;;;;5.40;4.22;;;19.00;99.90;;;;;;5063801;28;20223;-84
2022/04/30 08:30:10;;;;;;;6.43;4.53;;;19.20;99.90;;;;;;5067175;28;20653;-85
2022/04/30 08:32:37;;;;;;;7.50;4.47;;;19.00;99.90;;;;;;5068784;28;20645;-83
2022/04/30 08:35:04;;;;;;;6.80;4.57;;;18.70;99.90;;;;;;5051440;28;20223;-83
2022/04/30 08:37:51;;;;;;;5.53;4.65;;;18.20;99.90;;;;;;5052378;28;20288;-84
2022/04/30 08:40:18;;;;;;;7.60;4.22;;;17.50;99.90;;;;;;5066388;28;20271;-82
2022/04/30 08:42:49;;;;;;;8.02;4.50;;;16.90;99.90;;;;;;5069003;28;20232;-83
2022/04/30 08:45:15;;;;;;;7.15;4.30;;;16.30;99.90;;;;;;5050949;28;20588;-83
2022/04/30 08:47:47;;;;;;;9.37;4.97;;;15.80;99.90;;;;;;5046724;28;20200;-82
2022/04/30 08:50:15;;;;;;;9.20;4.43;;;15.30;99.90;;;;;;5058373;28;20681;-84
2022/04/30 08:52:42;;;;;;;11.17;5.23;;;14.90;99.90;;;;;;5065586;28;20204;-83
2022/04/30 08:55:11;;;;;;;9.17;5.10;;;14.50;99.90;;;;;;5067965;28;20217;-85
2022/04/30 08:57:38;;;;;;;6.97;4.73;;;14.40;99.90;;;;;;5050210;28;20616;-84
2022/04/30 09:00:07;;;;;;;9.50;5.37;;;14.20;99.90;;;;;;5064828;28;20232;-84
2022/04/30 09:02:34;;;;;;;7.80;5.27;;;14.10;99.90;;;;;;5067194;28;20212;-84
2022/04/30 09:05:02;;;;;;;10.00;5.50;;;14.20;99.90;;;;;;5049908;28;20290;-85
2022/04/30 09:07:29;;;;;;;8.60;5.60;;;14.20;99.90;;;;;;5061894;28;20850;-82
2022/04/30 09:10:00;;;;;;;8.97;5.57;;;14.20;99.90;;;;;;5062373;28;20208;-83
2022/04/30 09:12:29;;;;;;;8.80;5.60;;;14.20;99.90;;;;;;5046492;28;20208;-82
2022/04/30 09:14:56;;;;;;;8.30;5.67;;;14.30;99.90;;;;;;5065534;28;20212;-82
2022/04/30 09:17:27;;;;;;;6.87;5.30;;;14.30;99.90;;;;;;5050612;28;20205;-81
2022/04/30 09:19:56;;;;;;;8.57;5.97;;;14.30;99.90;;;;;;5064164;28;20305;-82
2022/04/30 09:22:30;;;;;;;8.17;5.47;;;14.10;99.90;;;;;;5068089;28;20216;-82
2022/04/30 09:24:59;;;;;;;9.27;6.13;;;14.10;99.90;;;;;;5050467;28;20630;-82
2022/04/30 09:27:49;;;;;;;8.33;6.07;;;14.00;99.90;;;;;;5064322;28;20302;-83
2022/04/30 09:30:18;;;;;;;10.80;5.67;;;14.00;99.90;;;;;;5065546;28;20671;-83
2022/04/30 09:32:45;;;;;;;8.60;5.53;;;14.40;99.90;;;;;;5042328;28;20313;-85
2022/04/30 09:38:06;;;;;;;6.67;5.47;;;13.90;99.90;;;;;;5060542;28;20205;-83
2022/04/30 09:40:32;;;;;;;13.07;6.10;;;13.80;99.90;;;;;;5066682;28;20638;-82
2022/04/30 09:43:01;;;;;;;8.17;5.07;;;13.70;99.90;;;;;;5055343;28;20276;-83
2022/04/30 09:45:32;;;;;;;7.10;4.87;;;13.70;99.90;;;;;;5043538;28;20213;-80
2022/04/30 09:53:56;;;;;;;8.93;5.50;;;13.70;99.90;;;;;;5044348;28;20208;-82
2022/04/30 09:53:56;;;;;;;9.87;4.20;;;13.30;99.90;;;;;;5045139;28;20205;-81
2022/04/30 09:56:36;;;;;;;5.93;4.03;;;13.30;99.90;;;;;;5043868;28;20212;-84
2022/04/30 09:59:05;;;;;;;4.70;3.83;;;13.20;99.90;;;;;;5045298;28;20215;-82
2022/04/30 10:01:37;;;;;;;6.17;3.57;;;13.10;99.90;;;;;;5039931;28;20271;-84
2022/04/30 10:04:12;;;;;;;3.93;3.53;;;13.00;99.90;;;;;;5056926;28;20217;-81
2022/04/30 10:06:49;;;;;;;4.30;3.60;;;13.10;99.90;;;;;;5046771;28;20620;-81
2022/04/30 10:09:20;;;;;;;6.00;3.47;;;13.30;99.90;;;;;;5041648;28;20209;-82
2022/04/30 10:12:03;;;;;;;5.03;3.93;;;13.00;99.90;;;;;;5047657;28;20209;-81
2022/04/30 10:14:33;;;;;;;5.00;3.80;;;13.10;99.90;;;;;;5048640;28;20353;-83
2022/04/30 10:19:36;;;;;;;3.47;3.17;;;13.30;99.90;;;;;;5051106;28;20236;-85
2022/04/30 10:22:14;;;;;;;5.80;3.50;;;13.30;99.90;;;;;;5048685;28;20213;-82
2022/04/30 10:24:46;;;;;;;4.73;3.67;;;13.10;99.90;;;;;;5046201;28;20240;-83
2022/04/30 10:27:14;;;;;;;5.63;3.63;;;13.20;99.90;;;;;;5049351;28;20240;-84
2022/04/30 10:29:55;;;;;;;6.47;3.80;;;13.20;99.90;;;;;;5049111;28;20568;-83
2022/04/30 10:32:30;;;;;;;5.63;4.83;;;12.90;99.90;;;;;;5050847;28;20294;-81
2022/04/30 10:34:57;;;;;;;8.33;4.43;;;12.90;99.90;;;;;;5047309;28;20304;-84
2022/04/30 10:37:32;;;;;;;6.03;3.90;;;12.80;99.90;;;;;;5051233;28;20211;-84
2022/04/30 10:40:02;;;;;;;10.27;4.03;;;12.90;99.90;;;;;;5047487;28;20280;-83
2022/04/30 10:42:30;;;;;;;5.63;3.80;;;12.90;99.90;;;;;;5053107;28;20201;-83
2022/04/30 10:44:58;;;;;;;4.17;3.47;;;13.10;99.90;;;;;;5050395;28;20204;-83
2022/04/30 10:47:25;;;;;;;5.80;3.50;;;13.20;99.90;;;;;;5068834;28;20262;-82
2022/04/30 10:49:53;;;;;;;6.97;3.47;;;13.20;99.90;;;;;;5069005;28;20354;-83
2022/04/30 10:52:22;;;;;;;4.10;3.13;;;13.20;99.90;;;;;;5051587;28;20216;-83
2022/04/30 10:54:54;;;;;;;3.20;2.90;;;13.20;99.90;;;;;;5052049;28;20740;-83
2022/04/30 10:57:21;;;;;;;6.13;3.67;;;13.20;99.90;;;;;;5063300;28;20651;-83
2022/04/30 11:00:02;;;;;;;4.53;3.03;;;13.20;99.90;;;;;;5070902;28;20204;-82
2022/04/30 11:02:30;;;;;;;3.63;3.07;;;13.30;99.90;;;;;;5068621;28;20224;-83
2022/04/30 11:04:59;;;;;;;4.97;3.37;;;13.40;99.90;;;;;;5068742;28;20280;-81
2022/04/30 11:07:28;;;;;;;4.17;3.10;;;13.50;99.90;;;;;;5064723;28;20208;-82
2022/04/30 11:09:55;;;;;;;3.93;3.30;;;13.50;99.90;;;;;;5049879;28;20200;-82
2022/04/30 11:12:32;;;;;;;3.33;2.90;;;13.70;99.90;;;;;;5063944;28;20240;-81
2022/04/30 11:14:59;;;;;;;3.67;2.73;;;13.80;99.90;;;;;;5061350;28;20236;-82
2022/04/30 11:17:26;;;;;;;5.00;3.47;;;14.00;99.90;;;;;;5067221;28;20200;-83
2022/04/30 11:19:55;;;;;;;5.27;3.40;;;14.10;99.90;;;;;;5050364;28;20265;-83
2022/04/30 11:22:23;;;;;;;5.53;2.97;;;14.30;99.90;;;;;;5068752;28;20219;-83
2022/04/30 11:24:50;;;;;;;5.13;2.97;;;14.50;99.90;;;;;;5066623;28;20208;-83
2022/04/30 11:27:18;;;;;;;4.23;3.07;;;14.70;99.90;;;;;;5068217;28;20605;-83
2022/04/30 11:29:57;;;;;;;7.20;3.57;;;14.90;99.90;;;;;;5066699;28;20209;-83
2022/04/30 11:32:29;;;;;;;5.20;3.40;;;15.00;99.90;;;;;;5065203;28;20293;-82
2022/04/30 11:35:01;;;;;;;6.90;3.30;;;15.30;99.90;;;;;;5065079;28;20683;-83
2022/04/30 11:37:40;;;;;;;6.43;3.30;;;15.70;99.90;;;;;;5044666;28;20201;-83
2022/04/30 11:40:07;;;;;;;3.53;2.97;;;15.70;99.90;;;;;;5066917;28;20265;-82
2022/04/30 11:42:34;;;;;;;4.10;3.00;;;15.80;99.90;;;;;;5068343;28;20283;-83
2022/04/30 11:45:02;;;;;;;5.13;3.33;;;16.00;99.90;;;;;;5066445;28;20254;-82
2022/04/30 11:47:29;;;;;;;4.03;2.90;;;16.30;99.90;;;;;;5050849;28;20205;-82
2022/04/30 11:50:04;;;;;;;4.32;3.08;;;16.40;99.90;;;;;;5064827;28;20653;-80
2022/04/30 11:52:32;;;;;;;4.28;2.90;;;16.60;99.90;;;;;;5061927;28;20258;-83
2022/04/30 11:55:03;;;;;;;4.40;3.17;;;16.70;99.90;;;;;;5044049;28;20644;-83
2022/04/30 11:57:31;;;;;;;5.38;3.17;;;16.80;99.90;;;;;;5063171;28;20215;-86
2022/04/30 11:59:59;;;;;;;3.65;3.35;;;16.70;99.90;;;;;;5061386;28;20209;-84
2022/04/30 12:02:29;;;;;;;4.53;3.60;;;16.70;99.90;;;;;;5066453;28;20201;-85
2022/04/30 12:05:02;;;;;;;4.28;3.15;;;16.80;99.90;;;;;;5069804;28;20265;-83
2022/04/30 12:07:42;;;;;;;4.07;2.88;;;16.90;99.90;;;;;;5062369;28;20266;-83
2022/04/30 12:10:16;;;;;;;5.53;2.83;;;17.10;99.90;;;;;;5070252;28;20213;-84
2022/04/30 12:12:44;;;;;;;4.07;2.80;;;17.10;99.90;;;;;;5065831;28;20441;-82
2022/04/30 12:15:25;;;;;;;5.22;3.22;;;17.10;99.90;;;;;;5062961;28;20228;-83
2022/04/30 12:26:58;;;;;;;3.53;2.63;;;17.30;99.90;;;;;;5074203;28;20220;-84
2022/04/30 12:29:26;;;;;;;3.08;2.67;;;17.30;99.90;;;;;;5064907;28;20213;-84
2022/04/30 12:31:53;;;;;;;3.80;2.88;;;16.90;99.90;;;;;;5077296;28;20307;-83
2022/04/30 12:34:25;;;;;;;3.47;2.75;;;16.80;99.90;;;;;;5074683;28;20197;-83
2022/04/30 12:36:58;;;;;;;9.13;3.45;;;16.80;99.90;;;;;;5076255;28;20224;-82
2022/04/30 12:39:25;;;;;;;3.28;2.67;;;16.90;99.90;;;;;;5056760;28;20224;-84
2022/04/30 12:41:54;;;;;;;3.47;2.78;;;16.80;99.90;;;;;;5070266;28;20266;-82
2022/04/30 12:44:22;;;;;;;6.93;4.10;;;16.80;99.90;;;;;;5067634;28;20286;-82
2022/04/30 12:46:49;;;;;;;5.63;3.73;;;16.30;99.90;;;;;;5069758;28;20200;-83
2022/04/30 12:49:19;;;;;;;6.40;4.60;;;16.00;99.90;;;;;;5081798;28;20235;-82
2022/04/30 12:51:50;;;;;;;4.97;3.57;;;16.10;99.90;;;;;;5081748;28;20208;-83
2022/04/30 12:54:17;;;;;;;4.47;3.63;;;15.90;99.90;;;;;;5070630;28;20205;-83
2022/04/30 12:56:46;;;;;;;3.97;3.40;;;15.80;99.90;;;;;;5057858;28;20339;-83
2022/04/30 12:59:14;;;;;;;5.13;3.93;;;15.70;99.90;;;;;;5066956;28;20212;-83
2022/04/30 13:01:41;;;;;;;6.07;3.93;;;15.80;99.90;;;;;;5063837;28;20232;-82
2022/04/30 13:04:08;;;;;;;6.83;4.10;;;15.60;99.90;;;;;;5058510;28;20885;-84
2022/04/30 13:06:36;;;;;;;4.77;4.10;;;16.00;99.90;;;;;;5059244;28;20208;-83
2022/04/30 13:14:35;;;;;;;5.53;4.10;;;15.50;99.90;;;;;;5065252;28;20235;-84
2022/04/30 13:17:03;;;;;;;5.20;4.00;;;15.40;99.90;;;;;;5061151;28;20209;-82
2022/04/30 13:19:31;;;;;;;4.87;3.67;;;15.40;99.90;;;;;;5068513;28;20220;-82
2022/04/30 13:21:59;;;;;;;4.70;3.73;;;15.40;99.90;;;;;;5047813;28;20229;-82
2022/04/30 13:24:26;;;;;;;5.20;3.90;;;15.40;99.90;;;;;;5065452;28;20207;-85
2022/04/30 13:26:54;;;;;;;4.43;3.53;;;15.30;99.90;;;;;;5051999;28;20208;-84
2022/04/30 13:29:20;;;;;;;4.70;3.73;;;15.40;99.90;;;;;;5069995;28;20246;-82
2022/04/30 13:31:47;;;;;;;5.53;3.57;;;15.50;99.90;;;;;;5051636;28;20268;-82
2022/04/30 13:34:14;;;;;;;5.77;3.53;;;15.40;99.90;;;;;;5070223;28;20690;-83
2022/04/30 13:36:41;;;;;;;4.87;3.53;;;15.40;99.90;;;;;;5060649;28;20270;-83
2022/04/30 13:39:08;;;;;;;5.40;4.07;;;15.40;99.90;;;;;;5066436;28;20618;-83
2022/04/30 13:41:35;;;;;;;5.03;3.40;;;15.30;99.90;;;;;;5058944;28;20237;-82
2022/04/30 13:44:03;;;;;;;4.50;3.50;;;15.40;99.90;;;;;;5067351;28;20257;-83
2022/04/30 13:46:30;;;;;;;5.03;3.10;;;15.50;99.90;;;;;;5069805;28;20212;-86